createdAt,value
2023-02-17T00:01:45.766Z,96.20
2023-02-17T00:04:14.500Z,78.50
2023-02-17T00:06:43.741Z,76.30
2023-02-17T00:09:13.161Z,73.60
2023-02-17T00:11:42.400Z,90.80
2023-02-17T00:14:14.599Z,75.80
2023-02-17T00:16:44.081Z,67.60
2023-02-17T00:19:27.137Z,70.60
2023-02-17T00:21:58.976Z,76.40
2023-02-17T00:24:31.243Z,84.30
2023-02-17T00:27:00.918Z,76.20
2023-02-17T00:29:29.999Z,82.40
2023-02-17T00:31:59.415Z,72.40
2023-02-17T00:34:28.799Z,76.50
2023-02-17T00:36:58.149Z,73.60
2023-02-17T00:39:28.874Z,80.40
2023-02-17T00:41:58.482Z,71.90
2023-02-17T00:44:27.651Z,76.10
2023-02-17T00:46:56.993Z,80.10
2023-02-17T00:49:27.869Z,71.90
2023-02-17T00:52:04.688Z,74.60
2023-02-17T00:54:36.278Z,74.10
2023-02-17T00:57:04.600Z,72.80
2023-02-17T04:02:07.446Z,117.90
2023-02-17T04:04:36.734Z,125.80
2023-02-17T04:07:06.405Z,109.90
2023-02-17T04:09:35.565Z,89.90
2023-02-17T04:12:05.049Z,81.50
2023-02-17T04:14:34.165Z,80.00
2023-02-17T04:17:03.312Z,82.20
2023-02-17T04:19:32.519Z,73.00
2023-02-17T04:22:02.127Z,76.30
2023-02-17T04:24:31.458Z,79.60
2023-02-17T04:27:00.837Z,76.10
2023-02-17T04:29:30.359Z,76.40
2023-02-17T04:31:59.791Z,67.30
2023-02-17T04:34:29.110Z,70.00
2023-02-17T04:36:58.375Z,64.70
2023-02-17T04:39:27.195Z,66.10
2023-02-17T04:41:56.389Z,69.10
2023-02-17T04:44:25.892Z,63.70
2023-02-17T04:46:55.090Z,62.60
2023-02-17T04:49:24.375Z,58.40
2023-02-17T04:51:53.696Z,60.80
2023-02-17T04:54:23.591Z,61.80
2023-02-17T04:56:52.752Z,61.00
2023-02-17T04:59:24.104Z,56.10
2023-02-17T05:01:55.090Z,60.80
2023-02-17T05:04:24.087Z,62.60
2023-02-17T05:06:52.779Z,87.30
2023-02-17T05:09:22.317Z,79.10
2023-02-17T05:11:51.503Z,65.70
2023-02-17T05:14:20.500Z,62.30
2023-02-17T05:16:50.016Z,61.50
2023-02-17T05:19:18.962Z,61.10
2023-02-17T05:21:48.278Z,54.40
2023-02-17T05:24:18.347Z,67.70
2023-02-17T05:26:47.508Z,62.20
2023-02-17T05:29:16.940Z,73.70
2023-02-17T05:31:46.283Z,69.70
2023-02-17T05:34:15.953Z,65.70
2023-02-17T05:36:45.181Z,72.50
2023-02-17T05:39:14.430Z,69.10
2023-02-17T05:41:43.542Z,67.90
2023-02-17T05:44:12.887Z,60.80
2023-02-17T05:46:42.287Z,59.40
2023-02-17T05:49:11.720Z,61.70
2023-02-17T05:51:40.985Z,65.10
2023-02-17T05:54:09.805Z,71.60
2023-02-17T05:56:38.283Z,64.10
2023-02-17T05:59:06.701Z,67.30
2023-02-17T06:01:37.340Z,69.30
2023-02-17T06:04:06.434Z,64.20
2023-02-17T06:06:35.940Z,76.10
2023-02-17T06:09:05.318Z,81.30
2023-02-17T06:11:33.963Z,71.20
2023-02-17T06:14:03.827Z,85.80
2023-02-17T06:16:33.232Z,79.00
2023-02-17T06:19:02.974Z,79.00
2023-02-17T06:21:33.283Z,78.30
2023-02-17T06:24:02.400Z,75.40
2023-02-17T06:26:31.577Z,73.10
2023-02-17T06:29:01.414Z,72.10
2023-02-17T06:31:30.715Z,71.70
2023-02-17T06:33:59.294Z,75.00
2023-02-17T06:36:28.585Z,76.50
2023-02-17T06:38:57.636Z,75.60
2023-02-17T06:41:27.055Z,68.70
2023-02-17T06:43:56.267Z,74.30
2023-02-17T06:46:25.090Z,73.40
2023-02-17T06:48:53.661Z,78.20
2023-02-17T06:51:23.140Z,78.20
2023-02-17T06:53:51.742Z,78.20
2023-02-17T06:56:21.350Z,77.40
2023-02-17T06:58:50.906Z,74.00
2023-02-17T07:01:24.229Z,72.60
2023-02-17T07:03:54.833Z,72.90
2023-02-17T07:06:26.058Z,77.60
2023-02-17T07:08:55.486Z,73.80
2023-02-17T07:11:24.670Z,68.80
2023-02-17T07:13:53.906Z,69.60
2023-02-17T07:16:23.209Z,70.70
2023-02-17T07:18:53.092Z,76.00
2023-02-17T07:21:22.695Z,72.50
2023-02-17T07:23:52.047Z,68.00
2023-02-17T07:26:21.205Z,64.60
2023-02-17T07:28:49.965Z,65.10
2023-02-17T07:31:18.722Z,65.30
2023-02-17T07:33:48.978Z,60.30
2023-02-17T07:36:18.204Z,51.00
2023-02-17T07:38:47.632Z,57.00
2023-02-17T07:41:19.003Z,59.50
2023-02-17T07:43:49.321Z,56.50
2023-02-17T07:46:19.036Z,61.00
2023-02-17T07:48:48.364Z,78.10
2023-02-17T07:51:22.412Z,66.40
2023-02-17T07:53:53.454Z,57.20
2023-02-17T07:56:24.115Z,58.40
2023-02-17T07:58:53.241Z,54.40
2023-02-17T08:01:24.689Z,63.10
2023-02-17T08:03:54.374Z,67.80
2023-02-17T08:06:25.714Z,55.20
2023-02-17T08:09:14.145Z,60.00
2023-02-17T08:12:03.682Z,57.30
2023-02-17T08:14:33.689Z,53.60
2023-02-17T08:17:02.857Z,59.10
2023-02-17T08:19:46.721Z,51.90
2023-02-17T08:22:17.902Z,51.40
2023-02-17T08:24:46.921Z,53.90
2023-02-17T08:27:17.128Z,54.70
2023-02-17T08:29:46.081Z,69.90
2023-02-17T08:32:17.416Z,59.60
2023-02-17T08:34:46.309Z,61.80
2023-02-17T08:37:15.499Z,65.70
2023-02-17T08:39:43.776Z,69.30
2023-02-17T08:42:12.836Z,64.60
2023-02-17T08:44:41.590Z,69.70
2023-02-17T08:47:10.817Z,78.20
2023-02-17T08:49:40.767Z,78.30
2023-02-17T08:52:10.184Z,77.50
2023-02-17T08:54:39.713Z,62.40
2023-02-17T08:57:08.896Z,59.40
2023-02-17T08:59:37.209Z,70.30
2023-02-17T09:02:07.271Z,62.90
2023-02-17T09:04:36.820Z,64.50
2023-02-17T09:07:09.723Z,55.00
2023-02-17T09:09:39.578Z,56.30
2023-02-17T09:12:08.989Z,74.20
2023-02-17T09:14:38.579Z,75.60
2023-02-17T09:17:07.984Z,68.70
2023-02-17T09:19:39.961Z,62.10
2023-02-17T09:22:08.883Z,56.90
2023-02-17T09:24:39.482Z,56.00
2023-02-17T09:27:08.589Z,58.70
2023-02-17T09:29:38.773Z,59.30
2023-02-17T09:32:11.000Z,51.80
2023-02-17T09:34:42.346Z,50.00
2023-02-17T09:37:13.086Z,54.50
2023-02-17T09:39:42.440Z,55.50
2023-02-17T09:42:23.755Z,52.30
2023-02-17T09:45:11.872Z,51.10
2023-02-17T09:47:47.654Z,51.80
2023-02-17T09:50:23.174Z,50.60
2023-02-17T09:53:28.185Z,46.40
2023-02-17T09:56:02.520Z,51.90
2023-02-17T09:58:58.920Z,53.10
2023-02-17T10:01:34.544Z,51.10
2023-02-17T10:04:11.944Z,55.00
2023-02-17T10:06:46.916Z,54.50
2023-02-17T10:09:24.482Z,72.50
2023-02-17T10:12:02.420Z,60.10
2023-02-17T10:14:53.973Z,53.50
2023-02-17T10:17:28.382Z,62.80
2023-02-17T10:20:12.829Z,61.70
2023-02-17T10:22:52.079Z,77.10
2023-02-17T10:25:40.297Z,66.00
2023-02-17T10:28:19.126Z,57.40
2023-02-17T10:30:56.109Z,63.90
2023-02-17T10:33:37.035Z,56.10
2023-02-17T10:36:29.362Z,51.10
2023-02-17T10:39:09.421Z,65.80
2023-02-17T10:41:41.616Z,53.60
2023-02-17T10:44:18.260Z,54.20
2023-02-17T10:46:49.278Z,62.10
2023-02-17T10:49:39.393Z,50.30
2023-02-17T10:52:17.528Z,51.30
2023-02-17T10:55:00.464Z,49.30
2023-02-17T10:57:35.923Z,57.10
2023-02-17T11:00:09.901Z,46.20
2023-02-17T11:02:47.212Z,47.70
2023-02-17T11:05:34.113Z,49.50
2023-02-17T11:08:07.833Z,60.10
2023-02-17T11:13:37.925Z,52.30
2023-02-17T11:16:07.146Z,68.70
2023-02-17T11:18:43.094Z,78.50
2023-02-17T11:21:11.768Z,53.10
2023-02-17T11:23:59.976Z,88.40
2023-02-17T11:26:33.104Z,61.20
2023-02-17T11:29:21.385Z,45.40
2023-02-17T11:32:08.500Z,52.90
2023-02-17T11:34:40.574Z,54.00
2023-02-17T11:37:11.966Z,48.10
2023-02-17T11:39:43.746Z,49.40
2023-02-17T11:42:17.701Z,51.60
2023-02-17T11:47:31.297Z,52.50
2023-02-17T11:52:58.932Z,52.50
2023-02-17T11:55:42.852Z,59.60
2023-02-17T12:00:58.487Z,101.20
2023-02-17T12:03:34.652Z,58.30
2023-02-17T12:06:32.153Z,59.00
2023-02-17T12:09:08.077Z,73.20
2023-02-17T12:11:54.997Z,65.20
2023-02-17T12:14:32.937Z,65.10
2023-02-17T12:17:15.238Z,59.50
2023-02-17T12:20:22.082Z,60.60
2023-02-17T12:23:08.487Z,60.50
2023-02-17T12:25:48.152Z,67.00
2023-02-17T12:28:22.699Z,58.90
2023-02-17T12:31:11.180Z,70.60
2023-02-17T12:34:03.988Z,61.20
2023-02-17T12:36:36.930Z,62.40
2023-02-17T12:39:55.019Z,51.70
2023-02-17T12:42:39.093Z,88.90
2023-02-17T12:47:44.593Z,46.70
2023-02-17T12:50:39.283Z,50.90
2023-02-17T12:53:17.694Z,45.90
2023-02-17T12:55:58.468Z,51.80
2023-02-17T12:58:29.560Z,48.00
2023-02-17T13:01:11.268Z,48.60
2023-02-17T13:03:40.631Z,52.40
2023-02-17T13:06:37.314Z,45.30
2023-02-17T13:09:15.935Z,48.60
2023-02-17T13:11:51.381Z,54.10
2023-02-17T13:14:30.614Z,54.20
2023-02-17T13:16:59.840Z,49.80
2023-02-17T13:19:35.361Z,56.10
2023-02-17T13:22:06.081Z,50.10
2023-02-17T13:24:40.416Z,50.00
2023-02-17T13:27:37.740Z,61.80
2023-02-17T13:30:07.096Z,56.10
2023-02-17T13:32:38.797Z,57.00
2023-02-17T13:35:31.217Z,50.50
2023-02-17T13:38:00.663Z,46.70
2023-02-17T13:40:34.971Z,48.10
2023-02-17T13:43:19.348Z,45.60
2023-02-17T13:46:01.973Z,45.50
2023-02-17T13:48:37.842Z,34.90
2023-02-17T13:51:28.119Z,34.90
2023-02-17T13:54:09.897Z,43.00
2023-02-17T13:56:42.685Z,48.80
2023-02-17T13:59:27.887Z,50.50
2023-02-17T14:02:00.410Z,58.20
2023-02-17T14:04:33.369Z,39.70
2023-02-17T14:07:06.481Z,50.90
2023-02-17T14:09:35.887Z,52.00
2023-02-17T14:12:07.794Z,35.60
2023-02-17T14:14:38.360Z,35.60
2023-02-17T14:17:13.937Z,35.20
2023-02-17T14:19:46.066Z,45.40
2023-02-17T14:22:29.917Z,47.20
2023-02-17T14:25:14.266Z,41.40
2023-02-17T14:27:46.355Z,30.00
2023-02-17T14:30:28.646Z,41.50
2023-02-17T14:33:18.591Z,40.30
2023-02-17T14:36:07.316Z,40.00
2023-02-17T14:38:43.156Z,47.80
2023-02-17T14:41:12.318Z,38.70
2023-02-17T14:43:41.158Z,52.10
2023-02-17T14:46:10.131Z,35.90
2023-02-17T14:48:38.745Z,33.20
2023-02-17T14:51:17.901Z,39.60
2023-02-17T14:53:47.031Z,77.30
2023-02-17T14:56:37.804Z,74.20
2023-02-17T14:59:06.253Z,64.20
2023-02-17T15:01:34.878Z,36.60
2023-02-17T15:04:03.148Z,46.80
2023-02-17T15:06:41.243Z,48.10
2023-02-17T15:09:13.390Z,44.30
2023-02-17T15:11:45.761Z,30.60
2023-02-17T15:14:17.681Z,40.90
2023-02-17T15:16:47.726Z,47.80
2023-02-17T15:19:20.356Z,48.60
2023-02-17T15:21:52.655Z,44.60
2023-02-17T15:24:27.066Z,34.70
2023-02-17T15:26:57.643Z,34.10
2023-02-17T15:29:30.591Z,43.60
2023-02-17T15:32:11.219Z,56.60
2023-02-17T15:34:40.379Z,58.10
2023-02-17T15:37:10.454Z,53.10
2023-02-17T15:39:39.524Z,50.80
2023-02-17T15:42:13.941Z,44.20
2023-02-17T15:44:50.003Z,37.80
2023-02-17T15:47:20.705Z,36.10
2023-02-17T15:49:50.107Z,33.80
2023-02-17T15:52:19.058Z,34.80
2023-02-17T15:54:48.587Z,26.10
2023-02-17T15:57:25.408Z,21.00
2023-02-17T15:59:57.886Z,33.70
2023-02-17T16:02:26.413Z,30.10
2023-02-17T16:04:55.681Z,56.90
2023-02-17T16:07:26.939Z,33.80
2023-02-17T16:09:56.232Z,31.70
2023-02-17T16:12:27.948Z,41.70
2023-02-17T16:14:58.838Z,60.90
2023-02-17T16:17:27.846Z,64.90
2023-02-17T16:19:56.775Z,52.00
2023-02-17T16:22:25.592Z,32.30
2023-02-17T16:24:54.849Z,34.20
2023-02-17T16:27:25.338Z,36.80
2023-02-17T16:29:53.902Z,35.10
2023-02-17T16:32:22.518Z,38.60
2023-02-17T16:34:51.500Z,26.40
2023-02-17T16:37:19.854Z,43.80
2023-02-17T16:39:48.840Z,30.00
2023-02-17T16:42:17.620Z,28.20
2023-02-17T16:44:47.198Z,36.90
2023-02-17T16:47:21.304Z,28.50
2023-02-17T16:49:50.698Z,23.80
2023-02-17T16:52:27.511Z,24.90
2023-02-17T16:54:56.576Z,25.10
2023-02-17T16:57:26.584Z,23.40
2023-02-17T16:59:56.112Z,22.60
2023-02-17T17:02:25.215Z,21.30
2023-02-17T17:04:53.790Z,28.40
2023-02-17T17:07:22.619Z,31.80
2023-02-17T17:10:14.756Z,26.90
2023-02-17T17:12:40.731Z,34.60
2023-02-17T17:15:10.161Z,23.30
2023-02-17T17:17:44.993Z,20.10
2023-02-17T17:20:20.227Z,13.70
2023-02-17T17:22:49.509Z,14.90
2023-02-17T17:25:18.143Z,13.30
2023-02-17T17:27:46.679Z,13.60
2023-02-17T17:30:22.197Z,14.20
2023-02-17T17:32:52.068Z,13.70
2023-02-17T17:35:22.351Z,17.20
2023-02-17T17:37:51.332Z,24.10
2023-02-17T17:40:49.100Z,29.60
2023-02-17T17:43:21.575Z,31.50
2023-02-17T17:45:52.277Z,24.50
2023-02-17T17:48:21.370Z,27.90
2023-02-17T17:50:50.697Z,22.20
2023-02-17T17:53:19.884Z,26.80
2023-02-17T17:55:49.305Z,23.00
2023-02-17T17:58:17.857Z,22.40
2023-02-17T18:00:47.030Z,25.40
2023-02-17T18:03:16.257Z,35.80
2023-02-17T18:05:45.656Z,58.60
2023-02-17T18:08:14.417Z,36.70
2023-02-17T18:10:43.758Z,29.50
2023-02-17T18:13:14.284Z,29.20
2023-02-17T18:15:44.343Z,24.00
2023-02-17T18:18:13.804Z,24.80
2023-02-17T18:20:42.936Z,24.80
2023-02-17T18:23:11.783Z,18.10
2023-02-17T18:25:40.514Z,17.60
2023-02-17T18:28:09.433Z,19.60
2023-02-17T18:30:38.435Z,20.60
2023-02-17T18:33:07.314Z,19.20
2023-02-17T18:35:38.924Z,18.20
2023-02-17T18:38:08.662Z,18.00
2023-02-17T18:40:42.499Z,21.80
2023-02-17T18:43:11.682Z,22.40
2023-02-17T18:45:40.682Z,25.70
2023-02-17T18:48:09.636Z,28.80
2023-02-17T18:50:37.999Z,24.80
2023-02-17T18:53:07.016Z,20.10
2023-02-17T18:55:39.473Z,16.70
2023-02-17T18:58:08.055Z,36.80
2023-02-17T19:00:37.113Z,32.40
2023-02-17T19:03:05.582Z,19.60
2023-02-17T19:05:34.815Z,26.50
2023-02-17T19:08:04.035Z,23.00
2023-02-17T19:10:34.381Z,23.00
2023-02-17T19:13:03.990Z,18.00
2023-02-17T19:15:34.155Z,14.80
2023-02-17T19:18:03.784Z,24.70
2023-02-17T19:20:33.058Z,18.50
2023-02-17T19:23:02.962Z,23.00
2023-02-17T19:25:32.252Z,19.60
2023-02-17T19:28:01.264Z,41.90
2023-02-17T19:30:30.250Z,133.40
2023-02-17T19:32:58.858Z,34.80
2023-02-17T19:35:27.560Z,25.50
2023-02-17T19:37:56.009Z,18.10
2023-02-17T19:40:24.375Z,12.20
2023-02-17T19:42:52.658Z,13.50
2023-02-17T19:45:21.282Z,12.30
2023-02-17T19:47:50.942Z,14.60
2023-02-17T19:50:20.863Z,21.90
2023-02-17T19:52:49.424Z,13.80
2023-02-17T19:55:19.065Z,11.10
2023-02-17T19:57:54.021Z,14.50
2023-02-17T20:00:28.448Z,13.70
2023-02-17T20:03:07.975Z,10.00
2023-02-17T20:05:50.881Z,10.90
2023-02-17T20:08:31.151Z,11.00
2023-02-17T20:11:10.994Z,7.30
2023-02-17T20:13:48.311Z,6.30
2023-02-17T20:16:24.746Z,5.60
2023-02-17T20:19:04.081Z,5.40
2023-02-17T20:21:41.982Z,11.80
2023-02-17T20:24:19.858Z,5.90
2023-02-17T20:26:58.735Z,10.10
2023-02-17T20:29:32.254Z,15.30
2023-02-17T20:32:07.667Z,18.00
2023-02-17T20:34:45.995Z,14.20
2023-02-17T20:37:22.170Z,12.70
2023-02-17T20:39:58.056Z,13.60
2023-02-17T20:42:31.365Z,7.50
2023-02-17T20:45:00.350Z,14.10
2023-02-17T20:47:29.781Z,12.00
2023-02-17T20:49:59.242Z,11.40
2023-02-17T20:52:28.645Z,12.00
2023-02-17T20:54:57.544Z,5.80
2023-02-17T20:57:27.582Z,9.20
2023-02-17T20:59:56.067Z,8.20
2023-02-17T21:02:25.255Z,20.80
2023-02-17T21:04:55.993Z,7.50
2023-02-17T21:07:26.843Z,6.90
2023-02-17T21:09:57.298Z,8.20
2023-02-17T21:12:31.253Z,7.90
2023-02-17T21:15:01.375Z,25.80
2023-02-17T21:17:31.005Z,83.10
2023-02-17T21:20:01.715Z,18.90
2023-02-17T21:22:32.577Z,183.80
2023-02-17T21:25:01.354Z,46.50
2023-02-17T21:27:30.855Z,51.30
2023-02-17T21:30:00.128Z,36.50
2023-02-17T21:32:28.939Z,78.40
2023-02-17T21:34:57.877Z,64.50
2023-02-17T21:37:26.757Z,43.80
2023-02-17T21:39:55.503Z,48.00
2023-02-17T21:42:45.710Z,41.90
2023-02-17T21:45:15.327Z,25.40
2023-02-17T21:47:44.300Z,32.90
2023-02-17T21:50:13.896Z,13.00
2023-02-17T21:52:43.048Z,32.20
2023-02-17T21:55:12.804Z,18.10
2023-02-17T21:57:43.925Z,11.70
2023-02-17T22:00:16.760Z,6.80
2023-02-17T22:02:46.561Z,10.70
2023-02-17T22:05:15.511Z,30.70
2023-02-17T22:07:44.107Z,151.70
2023-02-17T22:10:12.870Z,102.30
2023-02-17T22:12:41.065Z,17.90
2023-02-17T22:15:11.420Z,95.80
2023-02-17T22:17:40.470Z,20.80
2023-02-17T22:20:10.405Z,75.70
2023-02-17T22:22:39.187Z,73.40
2023-02-17T22:25:08.561Z,59.00
2023-02-17T22:27:37.070Z,65.30
2023-02-17T22:30:09.777Z,76.60
2023-02-17T22:32:40.880Z,58.30
2023-02-17T22:35:10.777Z,41.70
2023-02-17T22:37:40.454Z,32.00
2023-02-17T22:40:13.009Z,26.60
2023-02-17T22:42:41.914Z,21.20
2023-02-17T22:45:10.785Z,16.40
2023-02-17T22:47:39.287Z,23.80
2023-02-17T22:50:08.270Z,11.60
2023-02-17T22:52:37.127Z,8.70
2023-02-17T22:55:06.615Z,7.50
2023-02-17T22:57:36.194Z,17.30
2023-02-17T23:00:05.768Z,9.20
2023-02-17T23:02:35.824Z,11.80
2023-02-17T23:05:09.261Z,20.10
2023-02-17T23:07:38.097Z,9.30
2023-02-17T23:10:08.191Z,10.90
2023-02-17T23:12:37.390Z,7.40
2023-02-17T23:15:07.019Z,7.50
2023-02-17T23:17:55.881Z,69.50
2023-02-17T23:20:25.916Z,57.00
2023-02-17T23:22:54.713Z,143.20
2023-02-17T23:25:24.511Z,186.30
2023-02-17T23:27:54.266Z,111.40
2023-02-17T23:30:23.818Z,132.80
2023-02-17T23:32:53.207Z,103.40
2023-02-17T23:35:22.460Z,39.30
2023-02-17T23:37:53.075Z,41.90
2023-02-17T23:40:22.297Z,62.20
2023-02-17T23:42:50.610Z,27.80
2023-02-17T23:45:19.745Z,22.70
2023-02-17T23:47:48.427Z,19.50
2023-02-17T23:50:17.728Z,14.50
2023-02-17T23:52:47.299Z,11.50
2023-02-17T23:55:16.720Z,8.30
2023-02-17T23:57:46.386Z,8.10
